Time;durP1;ratioP1;P1;durP2;ratioP2;P2;SDS_P1;SDS_P2;PMS_P1;PMS_P2;Temp;Humidity;BMP_temperature;BMP_pressure;BME280_temperature;BME280_humidity;BME280_pressure;Samples;Min_cycle;Max_cycle;Signal;HPM_P1;HPM_P2
2022/10/25 00:02:23;;;;;;;19.88;8.15;;;13.20;99.90;;;;;;4995790;28;20106;-83
2022/10/25 00:04:49;;;;;;;16.75;7.07;;;13.30;99.90;;;;;;5010998;28;20041;-82
2022/10/25 00:07:15;;;;;;;19.67;8.45;;;13.20;99.90;;;;;;4993481;28;20041;-82
2022/10/25 00:09:41;;;;;;;21.73;8.73;;;13.20;99.90;;;;;;4979065;28;20048;-82
2022/10/25 00:12:07;;;;;;;23.27;9.32;;;13.30;99.90;;;;;;5009772;28;20242;-83
2022/10/25 00:14:34;;;;;;;22.42;9.45;;;13.20;99.90;;;;;;5006552;28;20616;-79
2022/10/25 00:16:59;;;;;;;19.30;8.88;;;13.20;99.90;;;;;;5015275;28;20102;-81
2022/10/25 00:19:25;;;;;;;25.60;9.07;;;13.20;99.90;;;;;;4994494;28;21817;-81
2022/10/25 00:21:51;;;;;;;19.65;8.35;;;13.20;99.90;;;;;;4973897;28;20045;-79
2022/10/25 00:24:17;;;;;;;26.40;10.30;;;13.20;99.90;;;;;;5011417;28;20413;-83
2022/10/25 00:26:43;;;;;;;20.98;8.75;;;13.20;99.90;;;;;;4977660;28;21456;-83
2022/10/25 00:29:09;;;;;;;19.10;8.38;;;13.20;99.90;;;;;;4974912;28;20049;-80
2022/10/25 00:31:36;;;;;;;16.80;8.10;;;13.20;99.90;;;;;;5009753;28;20515;-83
2022/10/25 00:34:02;;;;;;;23.63;7.95;;;13.20;99.90;;;;;;4991892;28;20044;-83
2022/10/25 00:36:28;;;;;;;20.48;8.20;;;13.30;99.90;;;;;;4997933;28;20044;-83
2022/10/25 00:38:57;;;;;;;18.75;8.00;;;13.50;99.90;;;;;;4991910;28;20045;-83
2022/10/25 00:41:26;;;;;;;25.20;10.13;;;13.20;99.90;;;;;;5007477;28;20489;-83
2022/10/25 00:44:14;;;;;;;19.63;8.55;;;13.20;99.90;;;;;;4996462;28;20513;-81
2022/10/25 00:46:40;;;;;;;23.23;8.48;;;13.20;99.90;;;;;;4969244;28;20049;-81
2022/10/25 00:49:18;;;;;;;26.67;8.93;;;13.10;99.90;;;;;;4992432;28;20188;-82
2022/10/25 00:51:49;;;;;;;20.55;8.65;;;13.20;99.90;;;;;;5005520;28;21499;-83
2022/10/25 00:54:22;;;;;;;20.92;8.77;;;13.20;99.90;;;;;;4982910;28;20091;-83
2022/10/25 00:56:50;;;;;;;24.77;10.02;;;13.20;99.90;;;;;;5002651;28;20037;-81
2022/10/25 00:59:26;;;;;;;24.10;9.93;;;13.20;99.90;;;;;;4989857;28;20049;-82
2022/10/25 01:01:53;;;;;;;18.77;9.90;;;13.20;99.90;;;;;;4986492;28;20456;-81
2022/10/25 01:04:25;;;;;;;30.77;10.85;;;13.10;99.90;;;;;;4992792;28;20042;-83
2022/10/25 01:06:52;;;;;;;20.23;9.10;;;13.30;99.90;;;;;;5021384;28;20067;-79
2022/10/25 01:09:21;;;;;;;21.75;10.75;;;13.10;99.90;;;;;;4990620;28;20056;-82
2022/10/25 01:11:47;;;;;;;24.83;12.32;;;13.30;99.90;;;;;;5005447;28;20041;-83
2022/10/25 01:14:15;;;;;;;29.33;11.75;;;13.10;99.90;;;;;;4988936;28;20040;-81
2022/10/25 01:17:04;;;;;;;23.50;10.60;;;13.10;99.90;;;;;;4986791;28;20041;-82
2022/10/25 01:20:11;;;;;;;28.23;11.32;;;13.20;99.90;;;;;;4991814;28;20467;-81
2022/10/25 01:22:41;;;;;;;23.17;10.30;;;13.10;99.90;;;;;;4993827;28;20437;-83
2022/10/25 01:25:26;;;;;;;21.80;11.27;;;13.10;99.90;;;;;;4990289;28;20037;-82
2022/10/25 01:28:01;;;;;;;23.42;10.95;;;13.10;99.90;;;;;;4993693;28;20578;-80
2022/10/25 01:30:43;;;;;;;23.40;11.68;;;13.10;99.90;;;;;;4993662;28;20065;-80
2022/10/25 01:34:00;;;;;;;22.77;11.05;;;13.10;99.90;;;;;;4990632;28;20128;-82
2022/10/25 01:36:50;;;;;;;26.63;11.07;;;13.20;99.90;;;;;;4990456;28;20107;-83
2022/10/25 01:39:18;;;;;;;25.25;10.05;;;13.20;99.90;;;;;;5009570;28;20039;-80
2022/10/25 01:42:11;;;;;;;21.60;10.65;;;13.30;99.90;;;;;;4981934;28;20037;-83
2022/10/25 01:44:49;;;;;;;22.08;9.57;;;13.20;99.90;;;;;;5005053;28;20183;-82
2022/10/25 01:47:23;;;;;;;26.55;9.38;;;13.30;99.90;;;;;;5023728;28;20037;-82
2022/10/25 01:49:58;;;;;;;19.23;9.10;;;13.30;99.90;;;;;;4999674;28;20038;-80
2022/10/25 01:52:24;;;;;;;19.08;8.65;;;13.40;99.90;;;;;;5003244;28;20029;-82
2022/10/25 01:54:50;;;;;;;19.92;8.13;;;13.30;99.90;;;;;;4992377;28;20061;-82
2022/10/25 01:57:23;;;;;;;18.60;8.35;;;13.30;99.90;;;;;;4991818;28;20079;-82
2022/10/25 01:59:55;;;;;;;20.75;8.63;;;13.40;99.90;;;;;;4998976;28;20175;-83
2022/10/25 02:02:59;;;;;;;17.10;8.82;;;13.40;99.90;;;;;;5000007;28;20029;-83
2022/10/25 02:05:43;;;;;;;18.10;8.80;;;13.40;99.90;;;;;;4944207;28;20523;-82
2022/10/25 02:08:35;;;;;;;25.05;8.73;;;13.30;99.90;;;;;;4992653;28;20166;-82
2022/10/25 02:11:24;;;;;;;20.40;8.30;;;13.30;99.90;;;;;;5000734;28;20055;-81
2022/10/25 02:14:01;;;;;;;21.40;8.82;;;13.40;99.90;;;;;;4983946;28;20531;-80
2022/10/25 02:16:53;;;;;;;21.02;9.63;;;13.40;99.90;;;;;;5011154;28;20144;-83
2022/10/25 02:19:26;;;;;;;18.08;8.68;;;13.40;99.90;;;;;;4988463;28;20041;-82
2022/10/25 02:21:53;;;;;;;19.45;9.27;;;13.40;99.90;;;;;;5007524;28;20457;-80
2022/10/25 02:24:25;;;;;;;21.25;9.40;;;13.40;99.90;;;;;;4976585;28;20513;-82
2022/10/25 02:26:52;;;;;;;19.35;9.80;;;13.40;99.90;;;;;;4989430;28;20041;-82
2022/10/25 02:29:20;;;;;;;23.00;10.05;;;13.40;99.90;;;;;;4970996;28;20045;-82
2022/10/25 02:31:46;;;;;;;20.27;9.10;;;13.50;99.90;;;;;;5005255;28;20034;-83
2022/10/25 02:34:12;;;;;;;18.45;9.02;;;13.40;99.90;;;;;;5007975;28;20494;-83
2022/10/25 02:36:37;;;;;;;22.45;8.88;;;13.50;99.90;;;;;;4987031;28;20037;-82
2022/10/25 02:39:03;;;;;;;19.80;9.20;;;13.50;99.90;;;;;;4996158;28;20041;-83
2022/10/25 02:41:29;;;;;;;19.63;8.32;;;13.50;99.90;;;;;;4991699;28;20045;-81
2022/10/25 02:43:55;;;;;;;19.15;8.45;;;13.50;99.90;;;;;;4985394;28;20034;-81
2022/10/25 02:46:22;;;;;;;28.27;9.77;;;13.50;99.90;;;;;;4999492;23;20073;-83
2022/10/25 02:48:48;;;;;;;23.10;9.23;;;13.50;99.90;;;;;;5000902;28;20038;-80
2022/10/25 02:51:15;;;;;;;21.05;8.18;;;13.50;99.90;;;;;;5002408;28;20034;-82
2022/10/25 02:53:41;;;;;;;23.60;9.40;;;13.40;99.90;;;;;;4987700;28;20097;-82
2022/10/25 02:56:13;;;;;;;20.25;8.18;;;13.40;99.90;;;;;;4996237;28;20057;-82
2022/10/25 02:58:41;;;;;;;23.05;8.30;;;13.50;99.90;;;;;;5034051;28;20050;-82
2022/10/25 03:01:07;;;;;;;21.60;9.20;;;13.40;99.90;;;;;;5019222;28;20039;-82
2022/10/25 03:03:33;;;;;;;20.42;8.77;;;13.40;99.90;;;;;;5010761;28;20069;-81
2022/10/25 03:05:59;;;;;;;22.55;9.30;;;13.60;99.90;;;;;;5039381;28;20073;-83
2022/10/25 03:08:26;;;;;;;24.40;9.27;;;13.50;99.90;;;;;;4994256;28;20065;-81
2022/10/25 03:10:52;;;;;;;21.30;9.07;;;13.40;99.90;;;;;;5019228;28;20072;-79
2022/10/25 03:13:18;;;;;;;24.50;8.65;;;13.40;99.90;;;;;;5025977;28;20115;-82
2022/10/25 03:15:44;;;;;;;22.67;9.35;;;13.50;99.90;;;;;;5010087;28;20041;-83
2022/10/25 03:18:10;;;;;;;23.83;9.05;;;13.40;99.90;;;;;;5010761;28;20042;-82
2022/10/25 03:20:36;;;;;;;17.20;7.72;;;13.40;99.90;;;;;;5021424;28;20087;-82
2022/10/25 03:23:03;;;;;;;21.95;8.93;;;13.80;99.90;;;;;;5024399;28;20068;-83
2022/10/25 03:25:28;;;;;;;25.48;8.30;;;13.40;99.90;;;;;;5013585;28;20057;-83
2022/10/25 03:27:54;;;;;;;26.05;8.27;;;13.40;99.90;;;;;;5013404;28;20044;-83
2022/10/25 03:30:20;;;;;;;21.60;8.10;;;13.30;99.90;;;;;;5011178;28;20538;-80
2022/10/25 03:32:46;;;;;;;25.15;7.78;;;13.30;99.90;;;;;;5017496;28;20995;-83
2022/10/25 03:35:11;;;;;;;25.42;7.70;;;13.30;99.90;;;;;;5015576;28;20072;-82
2022/10/25 03:37:37;;;;;;;23.58;7.10;;;13.40;99.90;;;;;;4997928;28;20041;-82
2022/10/25 03:40:03;;;;;;;23.10;6.97;;;13.30;99.90;;;;;;5011873;28;20037;-84
2022/10/25 03:42:29;;;;;;;21.80;7.47;;;13.30;99.90;;;;;;5001801;28;20040;-83
2022/10/25 03:44:54;;;;;;;23.27;6.72;;;13.40;99.90;;;;;;5026701;28;20033;-85
2022/10/25 03:47:20;;;;;;;25.60;6.97;;;13.30;99.90;;;;;;5015691;28;20505;-83
2022/10/25 03:49:46;;;;;;;25.90;6.97;;;13.30;99.90;;;;;;5017130;28;20489;-83
2022/10/25 03:52:11;;;;;;;25.70;6.65;;;13.30;99.90;;;;;;5024774;28;20051;-85
2022/10/25 03:54:37;;;;;;;27.20;6.32;;;13.30;99.90;;;;;;5027364;28;20065;-83
2022/10/25 03:57:03;;;;;;;27.67;6.28;;;13.40;99.90;;;;;;5016626;28;20045;-82
2022/10/25 03:59:29;;;;;;;23.45;5.75;;;13.40;99.90;;;;;;5017517;28;20038;-83
2022/10/25 04:01:55;;;;;;;26.13;6.28;;;13.30;99.90;;;;;;5000866;28;20057;-83
2022/10/25 04:04:20;;;;;;;20.75;6.20;;;13.30;99.90;;;;;;5031628;28;20089;-83
2022/10/25 04:06:46;;;;;;;20.10;5.78;;;13.30;99.90;;;;;;5035190;28;20040;-83
2022/10/25 04:09:12;;;;;;;21.73;7.10;;;13.30;99.90;;;;;;4999652;28;20449;-83
2022/10/25 04:11:38;;;;;;;13.10;5.68;;;14.10;99.90;;;;;;5027613;28;20065;-82
2022/10/25 04:14:03;;;;;;;17.63;5.38;;;13.80;99.90;;;;;;5026425;28;20084;-84
2022/10/25 04:16:29;;;;;;;24.95;6.40;;;13.20;99.90;;;;;;5020689;28;20040;-84
2022/10/25 04:18:56;;;;;;;24.38;6.35;;;13.20;99.90;;;;;;5014798;28;20116;-82
2022/10/25 04:21:22;;;;;;;17.00;5.05;;;13.30;99.90;;;;;;5014497;28;20611;-83
2022/10/25 04:23:51;;;;;;;17.85;5.38;;;13.20;99.90;;;;;;5003026;28;20067;-83
2022/10/25 04:26:18;;;;;;;19.75;5.30;;;13.10;99.90;;;;;;5017768;28;20053;-82
2022/10/25 04:28:49;;;;;;;17.88;5.80;;;13.10;99.90;;;;;;5006175;28;20780;-83
2022/10/25 04:31:15;;;;;;;21.08;4.93;;;13.30;99.90;;;;;;4999830;28;20144;-80
2022/10/25 04:33:40;;;;;;;17.27;6.15;;;13.00;99.90;;;;;;5024875;28;20061;-83
2022/10/25 04:36:06;;;;;;;19.73;5.30;;;13.00;99.90;;;;;;5020002;28;20037;-84
2022/10/25 04:38:32;;;;;;;23.20;6.35;;;13.00;99.90;;;;;;5029622;28;20042;-85
2022/10/25 04:40:59;;;;;;;20.40;5.45;;;13.00;99.90;;;;;;5012752;28;20076;-81
2022/10/25 04:43:26;;;;;;;18.98;5.32;;;13.10;99.90;;;;;;5010380;28;20109;-83
2022/10/25 04:45:53;;;;;;;22.50;5.82;;;13.00;99.90;;;;;;5014800;28;20025;-85
2022/10/25 04:48:19;;;;;;;25.33;5.43;;;12.90;99.90;;;;;;5015023;28;20136;-81
2022/10/25 04:50:45;;;;;;;20.15;4.72;;;13.00;99.90;;;;;;5015857;28;20045;-82
2022/10/25 04:53:11;;;;;;;19.75;5.25;;;12.90;99.90;;;;;;5023536;28;20116;-81
2022/10/25 04:55:37;;;;;;;17.05;4.65;;;12.90;99.90;;;;;;4991500;28;20195;-82
2022/10/25 04:58:03;;;;;;;18.40;5.05;;;12.90;99.90;;;;;;5013473;28;20169;-81
2022/10/25 05:00:29;;;;;;;22.08;5.15;;;12.90;99.90;;;;;;5008645;28;20053;-82
2022/10/25 05:02:54;;;;;;;23.27;5.35;;;12.90;99.90;;;;;;5009890;28;20034;-82
2022/10/25 05:05:22;;;;;;;21.58;5.13;;;12.90;99.90;;;;;;5027322;28;20037;-84
2022/10/25 05:07:48;;;;;;;17.27;4.30;;;12.80;99.90;;;;;;5033001;28;20575;-83
2022/10/25 05:10:14;;;;;;;23.33;4.88;;;12.80;99.90;;;;;;5000101;28;20037;-83
2022/10/25 05:12:40;;;;;;;15.85;4.47;;;12.80;99.90;;;;;;5019031;28;20097;-84
2022/10/25 05:15:06;;;;;;;17.88;4.97;;;12.90;99.90;;;;;;5011162;28;20528;-81
2022/10/25 05:17:32;;;;;;;20.13;4.78;;;12.80;99.90;;;;;;5013452;28;20046;-83
2022/10/25 05:19:58;;;;;;;18.25;4.35;;;12.80;99.90;;;;;;5012169;28;20037;-85
2022/10/25 05:22:24;;;;;;;21.00;4.82;;;12.80;99.90;;;;;;4997473;28;20037;-84
2022/10/25 05:24:49;;;;;;;24.73;5.70;;;12.80;99.90;;;;;;5009232;28;20034;-83
2022/10/25 05:27:15;;;;;;;27.35;5.88;;;12.90;99.90;;;;;;4997789;28;20978;-84
2022/10/25 05:29:41;;;;;;;20.30;5.20;;;12.90;99.90;;;;;;5041928;28;20069;-84
2022/10/25 05:32:07;;;;;;;20.63;5.50;;;12.90;99.90;;;;;;4977419;28;20121;-83
2022/10/25 05:34:33;;;;;;;26.08;6.05;;;12.90;99.90;;;;;;5004430;28;20044;-82
2022/10/25 05:36:58;;;;;;;24.77;6.45;;;12.80;99.90;;;;;;4996127;28;20046;-84
2022/10/25 05:39:24;;;;;;;25.52;6.75;;;12.60;99.90;;;;;;5025963;28;20131;-85
2022/10/25 05:41:50;;;;;;;14.95;6.03;;;12.80;99.90;;;;;;5009499;28;20045;-82
2022/10/25 05:44:16;;;;;;;21.50;6.63;;;12.80;99.90;;;;;;5019356;28;20043;-84
2022/10/25 05:46:43;;;;;;;26.38;8.32;;;12.80;99.90;;;;;;5026031;28;20049;-84
2022/10/25 05:49:08;;;;;;;21.13;7.57;;;12.80;99.90;;;;;;5028744;28;20053;-83
2022/10/25 05:51:35;;;;;;;18.77;7.65;;;12.80;99.90;;;;;;5013939;28;20030;-83
2022/10/25 05:54:08;;;;;;;18.02;6.45;;;12.80;99.90;;;;;;5015909;28;20038;-85
2022/10/25 05:56:34;;;;;;;22.70;8.20;;;12.80;99.90;;;;;;5026841;28;20124;-84
2022/10/25 05:59:08;;;;;;;26.80;9.10;;;12.80;99.90;;;;;;5003103;28;20619;-83
2022/10/25 06:01:35;;;;;;;26.55;8.88;;;12.80;99.90;;;;;;5015497;28;20661;-82
2022/10/25 06:04:01;;;;;;;26.63;7.47;;;12.80;99.90;;;;;;5031964;28;20037;-82
2022/10/25 06:06:27;;;;;;;24.17;7.80;;;12.80;99.90;;;;;;5021277;28;20037;-83
2022/10/25 06:09:00;;;;;;;21.23;7.82;;;12.80;99.90;;;;;;4999032;28;20053;-84
2022/10/25 06:11:26;;;;;;;17.70;7.30;;;12.80;99.90;;;;;;5008841;28;20036;-86
2022/10/25 06:13:52;;;;;;;28.67;8.00;;;12.70;99.90;;;;;;4993492;28;20048;-81
2022/10/25 06:16:19;;;;;;;28.27;7.22;;;12.80;99.90;;;;;;5017869;28;20055;-83
2022/10/25 06:18:45;;;;;;;22.98;6.38;;;12.80;99.90;;;;;;5003017;28;20033;-85
2022/10/25 06:21:12;;;;;;;23.35;7.03;;;12.80;99.90;;;;;;5008157;28;20049;-83
2022/10/25 06:23:39;;;;;;;24.50;6.20;;;12.80;99.90;;;;;;5021491;28;20055;-82
2022/10/25 06:26:11;;;;;;;23.95;6.60;;;12.80;99.90;;;;;;5018094;28;20074;-83
2022/10/25 06:28:37;;;;;;;16.80;5.97;;;12.80;99.90;;;;;;5027706;28;20040;-82
2022/10/25 06:31:05;;;;;;;18.13;5.35;;;12.80;99.90;;;;;;5002538;28;20100;-80
2022/10/25 06:33:31;;;;;;;25.60;5.95;;;12.80;99.90;;;;;;5019988;28;20381;-83
2022/10/25 06:35:58;;;;;;;18.10;5.88;;;13.20;99.90;;;;;;5002541;28;20556;-84
2022/10/25 06:38:25;;;;;;;17.67;5.53;;;12.80;99.90;;;;;;5007754;28;20579;-83
2022/10/25 06:40:57;;;;;;;19.02;6.43;;;12.80;99.90;;;;;;5003870;28;20535;-82
2022/10/25 06:43:22;;;;;;;24.77;5.57;;;12.80;99.90;;;;;;5038464;28;20519;-83
2022/10/25 06:45:48;;;;;;;20.30;5.25;;;12.70;99.90;;;;;;4985778;28;20059;-83
2022/10/25 06:48:14;;;;;;;18.55;5.03;;;12.80;99.90;;;;;;4996372;28;20042;-82
2022/10/25 06:50:44;;;;;;;21.95;5.43;;;12.80;99.90;;;;;;5025213;28;20042;-83
2022/10/25 06:53:21;;;;;;;20.77;4.88;;;12.80;99.90;;;;;;5028255;28;20034;-84
2022/10/25 06:56:03;;;;;;;17.23;4.32;;;12.80;99.90;;;;;;5011238;28;20116;-82
2022/10/25 06:58:33;;;;;;;22.63;5.10;;;12.70;99.90;;;;;;5030334;28;20050;-82
2022/10/25 07:01:09;;;;;;;21.33;5.05;;;12.70;99.90;;;;;;5029881;28;20426;-83
2022/10/25 07:03:49;;;;;;;13.63;3.58;;;12.80;99.90;;;;;;5009950;28;20081;-84
2022/10/25 07:06:28;;;;;;;18.17;4.18;;;12.80;99.90;;;;;;5032707;28;20072;-82
2022/10/25 07:09:18;;;;;;;19.60;4.65;;;12.80;99.90;;;;;;4999363;28;20125;-83
2022/10/25 07:11:49;;;;;;;20.13;5.88;;;12.80;99.90;;;;;;5017247;28;20401;-83
2022/10/25 07:14:37;;;;;;;18.48;4.38;;;12.80;99.90;;;;;;5017566;28;20405;-84
2022/10/25 07:17:34;;;;;;;16.42;4.68;;;12.30;99.90;;;;;;5026991;28;20490;-82
2022/10/25 07:20:24;;;;;;;18.38;4.72;;;12.80;99.90;;;;;;5015061;28;20109;-83
2022/10/25 07:22:51;;;;;;;15.10;4.20;;;12.10;99.90;;;;;;5026841;28;20507;-82
2022/10/25 07:25:25;;;;;;;16.45;4.60;;;13.00;99.90;;;;;;5029944;28;22016;-81
2022/10/25 07:28:01;;;;;;;19.90;5.70;;;12.90;99.90;;;;;;5011083;28;20064;-79
2022/10/25 07:30:47;;;;;;;23.92;4.93;;;12.90;99.90;;;;;;5034286;28;20049;-80
2022/10/25 07:36:04;;;;;;;17.65;4.20;;;13.00;99.90;;;;;;5033473;28;20049;-82
2022/10/25 07:38:33;;;;;;;22.48;5.35;;;13.10;99.90;;;;;;5034985;28;20529;-83
2022/10/25 07:41:02;;;;;;;18.75;4.13;;;13.10;99.90;;;;;;5022224;28;20377;-82
2022/10/25 07:43:28;;;;;;;19.20;5.10;;;13.20;99.90;;;;;;5037801;28;20045;-80
2022/10/25 07:45:54;;;;;;;15.65;4.50;;;13.20;99.90;;;;;;5034904;28;20560;-82
2022/10/25 07:48:20;;;;;;;21.35;5.15;;;13.30;99.90;;;;;;5032548;28;20038;-82
2022/10/25 07:50:46;;;;;;;17.20;4.68;;;13.40;99.90;;;;;;5035704;28;20413;-83
2022/10/25 07:53:12;;;;;;;16.63;4.03;;;13.40;99.90;;;;;;5025400;28;20040;-81
2022/10/25 07:55:38;;;;;;;15.90;4.82;;;13.50;99.90;;;;;;5006471;28;20045;-82
2022/10/25 07:58:07;;;;;;;20.98;4.93;;;13.50;99.90;;;;;;5054188;28;20041;-84
2022/10/25 08:00:35;;;;;;;22.50;5.35;;;13.30;99.90;;;;;;5012539;28;20504;-82
2022/10/25 08:03:01;;;;;;;18.80;5.65;;;13.60;99.90;;;;;;5033777;28;20049;-85
2022/10/25 08:05:27;;;;;;;21.63;4.80;;;13.60;99.90;;;;;;5007658;28;20042;-82
2022/10/25 08:07:53;;;;;;;20.85;4.70;;;13.70;99.90;;;;;;5031195;28;20513;-85
2022/10/25 08:10:20;;;;;;;28.50;5.82;;;13.70;99.90;;;;;;5034650;28;20029;-85
2022/10/25 08:13:49;;;;;;;20.23;4.95;;;13.80;99.90;;;;;;5026935;28;20703;-85
2022/10/25 08:16:18;;;;;;;17.90;4.85;;;12.80;99.90;;;;;;4919572;29;20055;-83
2022/10/25 08:19:15;;;;;;;14.93;4.22;;;13.80;99.90;;;;;;5009139;28;20124;-83
2022/10/25 08:22:02;;;;;;;15.93;4.30;;;13.80;99.90;;;;;;5012652;28;20522;-84
2022/10/25 08:25:28;;;;;;;;;;;;;;;;;;;;;
2022/10/25 08:28:05;;;;;;;20.42;4.85;;;13.80;99.90;;;;;;5029790;28;20485;-83
2022/10/25 08:30:41;;;;;;;21.00;5.00;;;13.80;99.90;;;;;;5012300;28;20052;-82
2022/10/25 08:33:07;;;;;;;15.30;4.57;;;14.00;99.90;;;;;;5011820;28;20034;-84
2022/10/25 08:35:33;;;;;;;21.50;5.10;;;13.90;99.90;;;;;;5026708;28;20140;-83
2022/10/25 08:38:03;;;;;;;23.45;5.78;;;14.10;99.90;;;;;;5031985;28;20525;-83
2022/10/25 08:40:43;;;;;;;19.73;6.05;;;14.10;99.90;;;;;;5028732;28;20044;-82
2022/10/25 08:43:39;;;;;;;22.20;5.15;;;14.20;99.90;;;;;;5027452;28;20057;-82
2022/10/25 08:46:22;;;;;;;21.92;6.30;;;14.30;99.90;;;;;;5027723;28;20552;-83
2022/10/25 08:48:52;;;;;;;14.80;5.40;;;14.40;99.90;;;;;;5040274;23;20042;-80
2022/10/25 08:51:49;;;;;;;21.83;5.35;;;14.40;99.90;;;;;;5008669;28;20041;-81
2022/10/25 08:54:45;;;;;;;22.08;5.70;;;14.50;99.90;;;;;;4981427;28;20054;-80
2022/10/25 08:57:27;;;;;;;22.13;5.63;;;14.60;99.90;;;;;;5006941;28;20042;-80
2022/10/25 08:59:55;;;;;;;20.23;5.55;;;14.60;99.90;;;;;;5009656;28;20093;-80
2022/10/25 09:02:45;;;;;;;22.80;6.15;;;14.70;99.90;;;;;;4996005;28;20379;-79
2022/10/25 09:05:36;;;;;;;18.05;5.28;;;14.80;99.90;;;;;;5007487;28;20039;-77
2022/10/25 09:08:23;;;;;;;18.75;5.70;;;14.80;99.90;;;;;;5001945;28;20161;-79
2022/10/25 09:11:01;;;;;;;15.27;4.78;;;14.80;99.90;;;;;;4986249;28;20087;-81
2022/10/25 09:13:39;;;;;;;19.17;5.20;;;15.00;99.90;;;;;;5026171;28;20034;-80
2022/10/25 09:16:22;;;;;;;18.33;5.10;;;15.10;99.90;;;;;;5008019;28;20046;-79
2022/10/25 09:18:53;;;;;;;21.85;5.40;;;15.20;99.90;;;;;;5008864;28;20461;-80
2022/10/25 09:21:37;;;;;;;18.25;4.28;;;15.20;99.90;;;;;;5008542;28;20537;-80
2022/10/25 09:24:18;;;;;;;19.50;4.07;;;15.30;99.90;;;;;;4993858;28;20069;-80
2022/10/25 09:27:11;;;;;;;13.02;3.88;;;15.30;99.90;;;;;;4986630;28;20073;-80
2022/10/25 09:29:47;;;;;;;16.43;3.90;;;15.30;99.90;;;;;;5011521;28;20056;-81
2022/10/25 09:32:30;;;;;;;15.00;3.95;;;15.40;99.90;;;;;;5001920;28;20041;-80
2022/10/25 09:34:58;;;;;;;19.27;3.30;;;15.40;99.90;;;;;;5004653;28;20879;-81
2022/10/25 09:37:33;;;;;;;17.60;3.03;;;15.60;99.90;;;;;;5003598;28;20867;-80
2022/10/25 09:40:05;;;;;;;10.88;2.60;;;15.50;99.90;;;;;;5008052;28;20535;-80
2022/10/25 09:42:35;;;;;;;16.40;2.92;;;15.50;99.90;;;;;;5021048;28;20109;-80
2022/10/25 09:45:17;;;;;;;11.80;3.47;;;15.50;99.90;;;;;;5007157;28;20429;-80
2022/10/25 09:48:03;;;;;;;14.40;3.20;;;15.50;99.90;;;;;;5006025;28;20041;-78
2022/10/25 09:50:42;;;;;;;16.20;3.38;;;15.60;99.90;;;;;;4985317;28;20061;-79
2022/10/25 09:53:18;;;;;;;15.25;2.90;;;15.70;99.90;;;;;;5007807;28;20041;-79
2022/10/25 09:55:52;;;;;;;13.52;3.53;;;15.70;99.90;;;;;;4976888;28;20066;-78
2022/10/25 09:58:30;;;;;;;12.98;2.58;;;15.80;99.90;;;;;;5009955;28;20520;-79
2022/10/25 10:01:03;;;;;;;13.20;3.58;;;15.80;99.90;;;;;;5012281;28;20414;-78
2022/10/25 10:03:34;;;;;;;11.02;3.22;;;15.90;99.90;;;;;;4995977;28;20045;-80
2022/10/25 10:06:06;;;;;;;13.43;3.35;;;15.90;99.90;;;;;;4997314;28;20038;-80
2022/10/25 10:08:34;;;;;;;14.60;3.72;;;15.90;99.90;;;;;;4996593;28;20175;-79
2022/10/25 10:11:00;;;;;;;17.02;3.85;;;15.90;99.90;;;;;;5002583;28;20152;-80
2022/10/25 10:13:39;;;;;;;16.05;2.72;;;16.00;99.90;;;;;;4989347;28;20140;-80
2022/10/25 10:16:19;;;;;;;15.13;3.83;;;16.00;99.90;;;;;;5002076;28;20041;-80
2022/10/25 10:18:47;;;;;;;13.52;3.78;;;16.10;99.90;;;;;;5008252;28;20164;-80
2022/10/25 10:21:19;;;;;;;12.77;3.70;;;16.10;99.90;;;;;;4991038;28;20527;-79
2022/10/25 10:24:04;;;;;;;16.20;3.85;;;16.50;99.90;;;;;;5009537;28;20052;-79
2022/10/25 10:26:34;;;;;;;17.23;4.28;;;16.00;99.90;;;;;;5007515;28;20080;-80
2022/10/25 10:29:36;;;;;;;12.73;4.68;;;16.00;99.90;;;;;;4989062;28;20478;-80
2022/10/25 10:32:21;;;;;;;13.70;4.55;;;16.00;99.90;;;;;;4969520;28;20053;-81
2022/10/25 10:34:55;;;;;;;13.85;6.05;;;16.00;99.90;;;;;;4992486;28;20045;-81
2022/10/25 10:37:23;;;;;;;15.93;5.50;;;16.20;99.90;;;;;;4987242;28;20044;-80
2022/10/25 10:39:50;;;;;;;16.45;6.68;;;16.30;99.90;;;;;;4988151;28;20622;-81
2022/10/25 10:42:22;;;;;;;18.80;5.60;;;16.30;99.90;;;;;;4987777;28;20795;-81
2022/10/25 10:45:12;;;;;;;13.93;5.10;;;16.40;99.90;;;;;;5004945;28;20042;-81
2022/10/25 10:47:50;;;;;;;17.40;4.82;;;16.50;99.90;;;;;;4991346;28;20121;-83
2022/10/25 10:50:27;;;;;;;12.80;5.40;;;16.60;99.90;;;;;;5020720;28;20042;-79
2022/10/25 10:53:31;;;;;;;13.63;5.60;;;16.70;99.90;;;;;;5008467;28;20060;-78
2022/10/25 10:56:04;;;;;;;16.80;6.82;;;16.80;99.90;;;;;;4978415;28;20136;-80
2022/10/25 10:58:33;;;;;;;18.70;6.53;;;16.90;99.90;;;;;;5007195;28;20045;-80
2022/10/25 11:01:03;;;;;;;17.65;5.55;;;17.00;99.90;;;;;;5009143;28;20048;-80
2022/10/25 11:03:41;;;;;;;22.38;6.05;;;17.10;99.90;;;;;;5011920;28;20141;-80
2022/10/25 11:06:14;;;;;;;16.02;5.07;;;17.10;99.90;;;;;;5008972;28;20060;-80
2022/10/25 11:08:45;;;;;;;15.07;5.22;;;17.30;99.90;;;;;;5011917;28;20038;-79
2022/10/25 11:11:15;;;;;;;13.98;5.15;;;17.20;99.90;;;;;;4994312;28;20124;-80
2022/10/25 11:13:56;;;;;;;13.15;5.28;;;17.20;99.90;;;;;;5013496;28;20061;-80
2022/10/25 11:16:35;;;;;;;10.65;5.07;;;17.00;99.90;;;;;;4988993;28;20113;-80
2022/10/25 11:19:09;;;;;;;10.40;5.25;;;17.10;99.90;;;;;;5011763;28;20042;-80
2022/10/25 11:22:07;;;;;;;14.57;5.05;;;17.10;99.90;;;;;;5008816;28;20050;-80
2022/10/25 11:24:51;;;;;;;15.40;5.60;;;17.10;99.90;;;;;;4981709;28;20046;-80
2022/10/25 11:27:36;;;;;;;15.40;5.18;;;17.20;99.90;;;;;;4992604;28;20598;-79
2022/10/25 11:30:09;;;;;;;12.85;4.03;;;17.30;99.90;;;;;;5008221;28;20072;-80
2022/10/25 11:33:02;;;;;;;14.80;4.57;;;17.50;99.90;;;;;;4994509;28;20684;-80
2022/10/25 11:35:47;;;;;;;17.00;4.80;;;17.70;99.90;;;;;;4990647;28;20106;-80
2022/10/25 11:38:21;;;;;;;14.60;4.20;;;17.70;99.90;;;;;;5010378;28;20037;-80
2022/10/25 11:41:22;;;;;;;13.65;4.25;;;17.50;99.90;;;;;;4990505;28;20042;-80
2022/10/25 11:43:48;;;;;;;13.00;4.50;;;17.30;99.90;;;;;;4991699;28;20046;-80
2022/10/25 11:46:38;;;;;;;12.85;4.07;;;17.20;99.90;;;;;;5007167;28;20041;-78
2022/10/25 11:49:43;;;;;;;13.00;4.90;;;17.00;99.90;;;;;;5012313;28;20038;-80
2022/10/25 11:52:14;;;;;;;;;;;16.80;99.90;;;;;;4995291;28;20581;-80
2022/10/25 11:55:15;;;;;;;12.95;3.97;;;16.70;99.90;;;;;;5013635;28;20522;-80
2022/10/25 11:58:18;;;;;;;13.05;4.15;;;16.60;99.90;;;;;;5010812;28;20038;-80
2022/10/25 12:00:57;;;;;;;13.73;4.90;;;16.50;99.90;;;;;;5007889;28;20069;-81
2022/10/25 12:03:28;;;;;;;13.43;6.05;;;16.40;99.90;;;;;;4990128;28;20040;-80
2022/10/25 12:06:12;;;;;;;10.65;5.90;;;16.40;99.90;;;;;;4995579;28;20498;-80
2022/10/25 12:08:52;;;;;;;15.15;6.78;;;16.40;99.90;;;;;;5011415;28;20061;-80
2022/10/25 12:11:51;;;;;;;16.58;7.57;;;16.40;99.90;;;;;;5007372;28;20061;-81
2022/10/25 12:14:27;;;;;;;14.07;5.85;;;16.40;99.90;;;;;;5001890;28;20065;-81
2022/10/25 12:16:56;;;;;;;22.92;7.50;;;16.30;99.90;;;;;;5003484;28;20053;-78
2022/10/25 12:19:28;;;;;;;14.48;5.72;;;16.60;99.90;;;;;;4979052;28;20034;-79
2022/10/25 12:22:02;;;;;;;14.02;5.38;;;16.80;99.90;;;;;;5014643;28;20099;-80
2022/10/25 12:24:36;;;;;;;;;;;16.80;99.90;;;;;;5012038;28;20405;-80
2022/10/25 12:27:02;;;;;;;12.07;4.75;;;16.80;99.90;;;;;;5000593;28;20490;-80
2022/10/25 12:29:42;;;;;;;10.70;5.10;;;16.80;99.90;;;;;;5006895;28;20149;-81
2022/10/25 12:32:19;;;;;;;13.02;5.25;;;17.00;99.90;;;;;;4982341;28;20038;-81
2022/10/25 12:34:49;;;;;;;17.75;4.47;;;17.20;99.90;;;;;;5008032;28;20475;-80
2022/10/25 12:37:23;;;;;;;10.80;3.83;;;17.40;99.90;;;;;;5005912;28;20088;-79
2022/10/25 12:39:50;;;;;;;12.13;3.05;;;17.50;99.90;;;;;;4995894;28;20049;-83
2022/10/25 12:42:22;;;;;;;8.07;3.65;;;17.50;99.90;;;;;;4949718;28;20046;-80
2022/10/25 12:45:24;;;;;;;12.25;3.92;;;17.60;99.90;;;;;;4982764;28;20153;-79
2022/10/25 12:48:15;;;;;;;8.57;3.40;;;17.50;99.90;;;;;;5014998;28;20450;-80
2022/10/25 12:50:50;;;;;;;10.18;3.33;;;17.50;99.90;;;;;;4996642;28;20045;-81
2022/10/25 12:53:15;;;;;;;10.13;3.10;;;17.40;99.90;;;;;;4998479;28;20513;-79
2022/10/25 12:56:26;;;;;;;10.23;3.50;;;17.30;99.90;;;;;;4982458;28;20034;-82
2022/10/25 12:59:03;;;;;;;9.23;3.75;;;17.30;99.90;;;;;;4970845;28;20042;-81
2022/10/25 13:01:50;;;;;;;10.52;3.45;;;17.40;99.90;;;;;;4994359;28;20175;-78
2022/10/25 13:04:44;;;;;;;10.15;3.42;;;17.50;99.90;;;;;;4999919;28;20042;-80
2022/10/25 13:07:11;;;;;;;12.77;4.95;;;17.40;99.90;;;;;;5000070;28;20058;-82
2022/10/25 13:09:38;;;;;;;12.82;4.75;;;17.30;99.90;;;;;;4998488;28;20050;-79
2022/10/25 13:12:14;;;;;;;11.70;6.50;;;17.20;99.90;;;;;;4998549;28;20821;-81
2022/10/25 13:14:52;;;;;;;12.23;7.65;;;17.10;99.90;;;;;;4978562;28;20041;-82